sensor_id;sensor_type;location;lat;lon;timestamp;P1;durP1;ratioP1;P2;durP2;ratioP2
30553;SDS011;17335;50.720;7.452;2022-09-03T00:00:27;4.53;;;1.52;;
30553;SDS011;17335;50.720;7.452;2022-09-03T00:02:59;6.32;;;1.50;;
30553;SDS011;17335;50.720;7.452;2022-09-03T00:05:36;2.28;;;1.20;;
30553;SDS011;17335;50.720;7.452;2022-09-03T00:08:08;3.30;;;1.50;;
30553;SDS011;17335;50.720;7.452;2022-09-03T00:10:38;3.78;;;1.30;;
30553;SDS011;17335;50.720;7.452;2022-09-03T00:13:16;3.15;;;1.30;;
30553;SDS011;17335;50.720;7.452;2022-09-03T00:15:49;2.55;;;1.42;;
30553;SDS011;17335;50.720;7.452;2022-09-03T00:18:19;2.03;;;1.25;;
30553;SDS011;17335;50.720;7.452;2022-09-03T00:20:53;2.30;;;1.20;;
30553;SDS011;17335;50.720;7.452;2022-09-03T00:23:25;2.35;;;1.40;;
30553;SDS011;17335;50.720;7.452;2022-09-03T00:31:35;1.95;;;1.30;;
30553;SDS011;17335;50.720;7.452;2022-09-03T00:34:16;6.50;;;1.80;;
30553;SDS011;17335;50.720;7.452;2022-09-03T00:36:49;4.10;;;1.40;;
30553;SDS011;17335;50.720;7.452;2022-09-03T00:50:44;4.78;;;1.20;;
30553;SDS011;17335;50.720;7.452;2022-09-03T00:55:51;2.22;;;1.40;;
30553;SDS011;17335;50.720;7.452;2022-09-03T01:04:31;2.42;;;1.38;;
30553;SDS011;17335;50.720;7.452;2022-09-03T01:12:38;3.22;;;1.60;;
30553;SDS011;17335;50.720;7.452;2022-09-03T01:15:14;2.63;;;1.45;;
30553;SDS011;17335;50.720;7.452;2022-09-03T01:17:48;3.60;;;1.25;;
30553;SDS011;17335;50.720;7.452;2022-09-03T01:20:20;1.70;;;1.05;;
30553;SDS011;17335;50.720;7.452;2022-09-03T01:29:16;2.80;;;1.42;;
30553;SDS011;17335;50.720;7.452;2022-09-03T01:34:26;2.42;;;1.40;;
30553;SDS011;17335;50.720;7.452;2022-09-03T01:42:24;2.22;;;1.30;;
30553;SDS011;17335;50.720;7.452;2022-09-03T02:02:09;1.90;;;1.20;;
30553;SDS011;17335;50.720;7.452;2022-09-03T02:05:00;3.25;;;1.40;;
30553;SDS011;17335;50.720;7.452;2022-09-03T02:07:32;4.13;;;1.60;;
30553;SDS011;17335;50.720;7.452;2022-09-03T02:10:02;2.55;;;1.10;;
30553;SDS011;17335;50.720;7.452;2022-09-03T02:12:31;3.75;;;1.50;;
30553;SDS011;17335;50.720;7.452;2022-09-03T02:15:04;1.95;;;1.05;;
30553;SDS011;17335;50.720;7.452;2022-09-03T02:17:36;5.45;;;1.20;;
30553;SDS011;17335;50.720;7.452;2022-09-03T02:20:05;2.22;;;1.30;;
30553;SDS011;17335;50.720;7.452;2022-09-03T02:22:40;1.60;;;1.10;;
30553;SDS011;17335;50.720;7.452;2022-09-03T02:25:08;2.92;;;1.17;;
30553;SDS011;17335;50.720;7.452;2022-09-03T02:27:37;3.85;;;1.35;;
30553;SDS011;17335;50.720;7.452;2022-09-03T02:30:04;3.30;;;1.48;;
30553;SDS011;17335;50.720;7.452;2022-09-03T02:32:31;4.18;;;1.30;;
30553;SDS011;17335;50.720;7.452;2022-09-03T02:34:58;3.50;;;1.48;;
30553;SDS011;17335;50.720;7.452;2022-09-03T02:37:25;1.80;;;1.13;;
30553;SDS011;17335;50.720;7.452;2022-09-03T02:39:52;1.90;;;1.23;;
30553;SDS011;17335;50.720;7.452;2022-09-03T02:42:19;1.48;;;1.10;;
30553;SDS011;17335;50.720;7.452;2022-09-03T02:44:56;2.67;;;1.40;;
30553;SDS011;17335;50.720;7.452;2022-09-03T02:47:30;2.22;;;1.10;;
30553;SDS011;17335;50.720;7.452;2022-09-03T02:49:58;1.67;;;1.15;;
30553;SDS011;17335;50.720;7.452;2022-09-03T02:52:25;2.00;;;1.33;;
30553;SDS011;17335;50.720;7.452;2022-09-03T02:54:51;2.40;;;1.33;;
30553;SDS011;17335;50.720;7.452;2022-09-03T02:57:18;2.33;;;1.27;;
30553;SDS011;17335;50.720;7.452;2022-09-03T02:59:52;2.17;;;1.27;;
30553;SDS011;17335;50.720;7.452;2022-09-03T03:02:19;1.77;;;1.30;;
30553;SDS011;17335;50.720;7.452;2022-09-03T03:04:46;1.83;;;1.13;;
30553;SDS011;17335;50.720;7.452;2022-09-03T03:07:13;1.75;;;1.15;;
30553;SDS011;17335;50.720;7.452;2022-09-03T03:09:39;2.95;;;1.67;;
30553;SDS011;17335;50.720;7.452;2022-09-03T03:12:06;1.50;;;1.23;;
30553;SDS011;17335;50.720;7.452;2022-09-03T03:14:33;2.05;;;1.30;;
30553;SDS011;17335;50.720;7.452;2022-09-03T03:17:00;2.22;;;1.63;;
30553;SDS011;17335;50.720;7.452;2022-09-03T03:19:27;2.20;;;1.23;;
30553;SDS011;17335;50.720;7.452;2022-09-03T03:21:54;1.98;;;1.40;;
30553;SDS011;17335;50.720;7.452;2022-09-03T03:24:21;4.50;;;1.45;;
30553;SDS011;17335;50.720;7.452;2022-09-03T03:26:48;1.95;;;1.27;;
30553;SDS011;17335;50.720;7.452;2022-09-03T03:29:16;3.08;;;1.45;;
30553;SDS011;17335;50.720;7.452;2022-09-03T03:31:43;2.10;;;0.95;;
30553;SDS011;17335;50.720;7.452;2022-09-03T03:34:11;1.80;;;1.10;;
30553;SDS011;17335;50.720;7.452;2022-09-03T03:36:37;3.83;;;1.20;;
30553;SDS011;17335;50.720;7.452;2022-09-03T03:39:04;2.72;;;1.30;;
30553;SDS011;17335;50.720;7.452;2022-09-03T03:41:32;1.77;;;1.17;;
30553;SDS011;17335;50.720;7.452;2022-09-03T03:44:01;1.52;;;1.17;;
30553;SDS011;17335;50.720;7.452;2022-09-03T03:46:34;2.30;;;1.27;;
30553;SDS011;17335;50.720;7.452;2022-09-03T03:49:03;2.45;;;1.42;;
30553;SDS011;17335;50.720;7.452;2022-09-03T03:51:32;1.88;;;1.10;;
30553;SDS011;17335;50.720;7.452;2022-09-03T03:53:59;2.70;;;1.52;;
30553;SDS011;17335;50.720;7.452;2022-09-03T03:56:30;2.35;;;1.40;;
30553;SDS011;17335;50.720;7.452;2022-09-03T03:58:58;2.08;;;1.10;;
30553;SDS011;17335;50.720;7.452;2022-09-03T04:01:25;2.55;;;1.20;;
30553;SDS011;17335;50.720;7.452;2022-09-03T04:03:54;1.45;;;1.00;;
30553;SDS011;17335;50.720;7.452;2022-09-03T04:06:21;2.35;;;1.42;;
30553;SDS011;17335;50.720;7.452;2022-09-03T04:08:48;1.88;;;1.23;;
30553;SDS011;17335;50.720;7.452;2022-09-03T04:11:16;2.60;;;1.38;;
30553;SDS011;17335;50.720;7.452;2022-09-03T04:13:44;2.95;;;1.35;;
30553;SDS011;17335;50.720;7.452;2022-09-03T04:16:13;1.60;;;1.13;;
30553;SDS011;17335;50.720;7.452;2022-09-03T04:18:44;2.20;;;1.30;;
30553;SDS011;17335;50.720;7.452;2022-09-03T04:21:12;3.35;;;1.45;;
30553;SDS011;17335;50.720;7.452;2022-09-03T04:23:41;2.10;;;1.17;;
30553;SDS011;17335;50.720;7.452;2022-09-03T04:26:11;2.90;;;1.33;;
30553;SDS011;17335;50.720;7.452;2022-09-03T04:28:40;2.50;;;1.20;;
30553;SDS011;17335;50.720;7.452;2022-09-03T04:31:09;2.72;;;1.25;;
30553;SDS011;17335;50.720;7.452;2022-09-03T04:33:37;2.65;;;1.30;;
30553;SDS011;17335;50.720;7.452;2022-09-03T04:36:06;3.50;;;1.27;;
30553;SDS011;17335;50.720;7.452;2022-09-03T04:38:43;3.03;;;1.20;;
30553;SDS011;17335;50.720;7.452;2022-09-03T04:41:12;2.10;;;1.20;;
30553;SDS011;17335;50.720;7.452;2022-09-03T04:43:40;2.35;;;1.40;;
30553;SDS011;17335;50.720;7.452;2022-09-03T04:46:09;2.25;;;1.17;;
30553;SDS011;17335;50.720;7.452;2022-09-03T04:48:46;3.58;;;1.45;;
30553;SDS011;17335;50.720;7.452;2022-09-03T04:51:14;3.60;;;1.30;;
30553;SDS011;17335;50.720;7.452;2022-09-03T04:53:43;1.98;;;1.13;;
30553;SDS011;17335;50.720;7.452;2022-09-03T04:56:18;1.98;;;1.10;;
30553;SDS011;17335;50.720;7.452;2022-09-03T04:58:47;2.42;;;1.33;;
30553;SDS011;17335;50.720;7.452;2022-09-03T05:01:19;3.63;;;1.30;;
30553;SDS011;17335;50.720;7.452;2022-09-03T05:03:48;2.13;;;1.13;;
30553;SDS011;17335;50.720;7.452;2022-09-03T05:06:17;2.17;;;1.38;;
30553;SDS011;17335;50.720;7.452;2022-09-03T05:08:48;1.98;;;1.25;;
30553;SDS011;17335;50.720;7.452;2022-09-03T05:11:16;2.25;;;1.30;;
30553;SDS011;17335;50.720;7.452;2022-09-03T05:13:46;2.92;;;1.40;;
30553;SDS011;17335;50.720;7.452;2022-09-03T05:16:14;4.60;;;1.45;;
30553;SDS011;17335;50.720;7.452;2022-09-03T05:18:41;2.13;;;1.42;;
30553;SDS011;17335;50.720;7.452;2022-09-03T05:21:08;3.45;;;1.20;;
30553;SDS011;17335;50.720;7.452;2022-09-03T05:23:41;4.10;;;1.40;;
30553;SDS011;17335;50.720;7.452;2022-09-03T05:26:10;2.97;;;1.40;;
30553;SDS011;17335;50.720;7.452;2022-09-03T05:28:42;2.40;;;1.35;;
30553;SDS011;17335;50.720;7.452;2022-09-03T05:31:14;1.83;;;1.17;;
30553;SDS011;17335;50.720;7.452;2022-09-03T05:33:46;2.50;;;1.38;;
30553;SDS011;17335;50.720;7.452;2022-09-03T05:36:15;2.90;;;1.20;;
30553;SDS011;17335;50.720;7.452;2022-09-03T05:38:44;1.85;;;1.27;;
30553;SDS011;17335;50.720;7.452;2022-09-03T05:41:12;1.90;;;1.10;;
30553;SDS011;17335;50.720;7.452;2022-09-03T05:43:40;2.42;;;1.40;;
30553;SDS011;17335;50.720;7.452;2022-09-03T05:46:08;2.33;;;1.45;;
30553;SDS011;17335;50.720;7.452;2022-09-03T05:48:37;2.70;;;1.40;;
30553;SDS011;17335;50.720;7.452;2022-09-03T05:51:06;2.42;;;1.30;;
30553;SDS011;17335;50.720;7.452;2022-09-03T05:53:36;2.35;;;1.23;;
30553;SDS011;17335;50.720;7.452;2022-09-03T05:56:05;3.67;;;1.38;;
30553;SDS011;17335;50.720;7.452;2022-09-03T05:58:35;2.10;;;1.35;;
30553;SDS011;17335;50.720;7.452;2022-09-03T06:01:11;2.03;;;1.00;;
30553;SDS011;17335;50.720;7.452;2022-09-03T06:03:42;2.90;;;1.27;;
30553;SDS011;17335;50.720;7.452;2022-09-03T06:06:11;2.83;;;1.30;;
30553;SDS011;17335;50.720;7.452;2022-09-03T06:08:39;2.95;;;0.95;;
30553;SDS011;17335;50.720;7.452;2022-09-03T06:11:07;3.22;;;1.70;;
30553;SDS011;17335;50.720;7.452;2022-09-03T06:13:34;2.70;;;1.50;;
30553;SDS011;17335;50.720;7.452;2022-09-03T06:16:05;2.00;;;1.33;;
30553;SDS011;17335;50.720;7.452;2022-09-03T06:18:32;3.38;;;1.30;;
30553;SDS011;17335;50.720;7.452;2022-09-03T06:21:00;2.28;;;1.40;;
30553;SDS011;17335;50.720;7.452;2022-09-03T06:23:32;1.95;;;1.15;;
30553;SDS011;17335;50.720;7.452;2022-09-03T06:26:09;2.63;;;1.50;;
30553;SDS011;17335;50.720;7.452;2022-09-03T06:28:37;4.78;;;1.58;;
30553;SDS011;17335;50.720;7.452;2022-09-03T06:31:07;2.58;;;1.30;;
30553;SDS011;17335;50.720;7.452;2022-09-03T06:33:36;2.85;;;1.23;;
30553;SDS011;17335;50.720;7.452;2022-09-03T06:36:04;2.42;;;1.35;;
30553;SDS011;17335;50.720;7.452;2022-09-03T06:38:34;3.03;;;1.23;;
30553;SDS011;17335;50.720;7.452;2022-09-03T06:41:06;2.20;;;1.35;;
30553;SDS011;17335;50.720;7.452;2022-09-03T06:43:39;2.25;;;1.35;;
30553;SDS011;17335;50.720;7.452;2022-09-03T06:46:09;3.78;;;1.40;;
30553;SDS011;17335;50.720;7.452;2022-09-03T06:48:37;1.52;;;1.20;;
30553;SDS011;17335;50.720;7.452;2022-09-03T06:51:07;2.42;;;1.20;;
30553;SDS011;17335;50.720;7.452;2022-09-03T06:53:35;3.55;;;1.52;;
30553;SDS011;17335;50.720;7.452;2022-09-03T06:56:04;2.15;;;1.40;;
30553;SDS011;17335;50.720;7.452;2022-09-03T06:58:33;2.30;;;1.27;;
30553;SDS011;17335;50.720;7.452;2022-09-03T07:01:06;3.42;;;1.50;;
30553;SDS011;17335;50.720;7.452;2022-09-03T07:03:36;1.88;;;1.20;;
30553;SDS011;17335;50.720;7.452;2022-09-03T07:06:07;2.92;;;1.38;;
30553;SDS011;17335;50.720;7.452;2022-09-03T07:08:36;3.15;;;1.40;;
30553;SDS011;17335;50.720;7.452;2022-09-03T07:11:03;3.05;;;1.38;;
30553;SDS011;17335;50.720;7.452;2022-09-03T07:13:38;2.15;;;1.40;;
30553;SDS011;17335;50.720;7.452;2022-09-03T07:16:10;4.20;;;1.20;;
30553;SDS011;17335;50.720;7.452;2022-09-03T07:18:39;2.67;;;1.35;;
30553;SDS011;17335;50.720;7.452;2022-09-03T07:21:07;2.67;;;1.40;;
30553;SDS011;17335;50.720;7.452;2022-09-03T07:23:37;4.30;;;1.60;;
30553;SDS011;17335;50.720;7.452;2022-09-03T07:26:07;3.30;;;1.25;;
30553;SDS011;17335;50.720;7.452;2022-09-03T07:28:45;2.60;;;1.30;;
30553;SDS011;17335;50.720;7.452;2022-09-03T07:31:15;2.40;;;1.13;;
30553;SDS011;17335;50.720;7.452;2022-09-03T07:33:45;3.75;;;1.45;;
30553;SDS011;17335;50.720;7.452;2022-09-03T07:36:15;2.33;;;1.10;;
30553;SDS011;17335;50.720;7.452;2022-09-03T07:38:43;3.28;;;1.30;;
30553;SDS011;17335;50.720;7.452;2022-09-03T07:41:11;2.75;;;1.33;;
30553;SDS011;17335;50.720;7.452;2022-09-03T07:43:54;3.45;;;1.45;;
30553;SDS011;17335;50.720;7.452;2022-09-03T07:46:23;2.20;;;1.08;;
30553;SDS011;17335;50.720;7.452;2022-09-03T07:48:53;1.48;;;1.10;;
30553;SDS011;17335;50.720;7.452;2022-09-03T07:51:22;2.22;;;1.30;;
30553;SDS011;17335;50.720;7.452;2022-09-03T07:53:52;3.88;;;1.10;;
30553;SDS011;17335;50.720;7.452;2022-09-03T07:56:21;2.90;;;1.25;;
30553;SDS011;17335;50.720;7.452;2022-09-03T07:58:49;1.83;;;1.15;;
30553;SDS011;17335;50.720;7.452;2022-09-03T08:01:16;4.00;;;1.45;;
30553;SDS011;17335;50.720;7.452;2022-09-03T08:03:46;2.15;;;1.23;;
30553;SDS011;17335;50.720;7.452;2022-09-03T08:06:14;1.85;;;1.08;;
30553;SDS011;17335;50.720;7.452;2022-09-03T08:08:42;2.17;;;1.20;;
30553;SDS011;17335;50.720;7.452;2022-09-03T08:11:14;2.85;;;1.50;;
30553;SDS011;17335;50.720;7.452;2022-09-03T08:13:43;1.77;;;1.10;;
30553;SDS011;17335;50.720;7.452;2022-09-03T08:16:16;2.15;;;1.38;;
30553;SDS011;17335;50.720;7.452;2022-09-03T08:18:46;3.20;;;1.30;;
30553;SDS011;17335;50.720;7.452;2022-09-03T08:21:16;5.10;;;1.38;;
30553;SDS011;17335;50.720;7.452;2022-09-03T08:23:47;2.40;;;1.25;;
30553;SDS011;17335;50.720;7.452;2022-09-03T08:26:16;2.50;;;1.23;;
30553;SDS011;17335;50.720;7.452;2022-09-03T08:28:44;3.72;;;2.00;;
30553;SDS011;17335;50.720;7.452;2022-09-03T08:31:12;3.83;;;1.63;;
30553;SDS011;17335;50.720;7.452;2022-09-03T08:33:46;5.28;;;1.52;;
30553;SDS011;17335;50.720;7.452;2022-09-03T08:36:15;4.32;;;1.40;;
30553;SDS011;17335;50.720;7.452;2022-09-03T08:38:45;3.92;;;1.60;;
30553;SDS011;17335;50.720;7.452;2022-09-03T08:41:26;3.10;;;1.60;;
30553;SDS011;17335;50.720;7.452;2022-09-03T08:44:14;3.78;;;1.60;;
30553;SDS011;17335;50.720;7.452;2022-09-03T08:52:07;3.67;;;1.45;;
30553;SDS011;17335;50.720;7.452;2022-09-03T08:54:50;3.83;;;1.60;;
30553;SDS011;17335;50.720;7.452;2022-09-03T08:57:20;2.70;;;1.60;;
30553;SDS011;17335;50.720;7.452;2022-09-03T08:59:49;2.90;;;1.23;;
30553;SDS011;17335;50.720;7.452;2022-09-03T09:02:25;5.07;;;1.73;;
30553;SDS011;17335;50.720;7.452;2022-09-03T09:04:58;5.38;;;1.77;;
30553;SDS011;17335;50.720;7.452;2022-09-03T09:07:58;3.25;;;1.60;;
30553;SDS011;17335;50.720;7.452;2022-09-03T09:10:36;2.15;;;1.38;;
30553;SDS011;17335;50.720;7.452;2022-09-03T09:21:27;3.10;;;1.60;;
30553;SDS011;17335;50.720;7.452;2022-09-03T09:23:59;3.03;;;1.60;;
30553;SDS011;17335;50.720;7.452;2022-09-03T09:26:32;3.03;;;1.60;;
30553;SDS011;17335;50.720;7.452;2022-09-03T09:29:03;2.97;;;1.55;;
30553;SDS011;17335;50.720;7.452;2022-09-03T09:31:36;1.98;;;1.30;;
30553;SDS011;17335;50.720;7.452;2022-09-03T09:34:05;2.90;;;1.70;;
30553;SDS011;17335;50.720;7.452;2022-09-03T09:36:36;3.70;;;1.40;;
30553;SDS011;17335;50.720;7.452;2022-09-03T09:39:09;5.57;;;1.50;;
30553;SDS011;17335;50.720;7.452;2022-09-03T09:41:37;3.10;;;1.73;;
30553;SDS011;17335;50.720;7.452;2022-09-03T09:44:04;2.50;;;1.50;;
30553;SDS011;17335;50.720;7.452;2022-09-03T09:46:34;4.40;;;1.73;;
30553;SDS011;17335;50.720;7.452;2022-09-03T09:49:06;3.55;;;1.88;;
30553;SDS011;17335;50.720;7.452;2022-09-03T09:52:07;2.75;;;1.50;;
30553;SDS011;17335;50.720;7.452;2022-09-03T09:54:37;2.38;;;1.50;;
30553;SDS011;17335;50.720;7.452;2022-09-03T09:57:06;3.00;;;1.67;;
30553;SDS011;17335;50.720;7.452;2022-09-03T09:59:43;3.70;;;1.55;;
30553;SDS011;17335;50.720;7.452;2022-09-03T10:04:52;4.78;;;1.50;;
30553;SDS011;17335;50.720;7.452;2022-09-03T10:07:25;3.60;;;1.60;;
30553;SDS011;17335;50.720;7.452;2022-09-03T10:10:00;2.28;;;1.35;;
30553;SDS011;17335;50.720;7.452;2022-09-03T10:15:04;3.60;;;1.60;;
30553;SDS011;17335;50.720;7.452;2022-09-03T10:20:57;2.95;;;1.70;;
30553;SDS011;17335;50.720;7.452;2022-09-03T10:23:32;6.45;;;1.90;;
30553;SDS011;17335;50.720;7.452;2022-09-03T10:26:11;5.22;;;1.90;;
30553;SDS011;17335;50.720;7.452;2022-09-03T10:28:42;3.97;;;1.73;;
30553;SDS011;17335;50.720;7.452;2022-09-03T10:33:52;2.83;;;1.85;;
30553;SDS011;17335;50.720;7.452;2022-09-03T10:36:24;2.97;;;1.70;;
30553;SDS011;17335;50.720;7.452;2022-09-03T10:39:19;3.33;;;1.77;;
30553;SDS011;17335;50.720;7.452;2022-09-03T10:41:55;3.40;;;2.20;;
30553;SDS011;17335;50.720;7.452;2022-09-03T10:44:30;4.30;;;2.10;;
30553;SDS011;17335;50.720;7.452;2022-09-03T11:06:45;2.33;;;1.52;;
30553;SDS011;17335;50.720;7.452;2022-09-03T11:09:29;2.92;;;1.88;;
30553;SDS011;17335;50.720;7.452;2022-09-03T11:12:04;5.82;;;1.70;;
30553;SDS011;17335;50.720;7.452;2022-09-03T11:14:35;3.30;;;1.92;;
30553;SDS011;17335;50.720;7.452;2022-09-03T11:17:10;3.22;;;1.92;;
30553;SDS011;17335;50.720;7.452;2022-09-03T11:19:47;3.28;;;1.58;;
30553;SDS011;17335;50.720;7.452;2022-09-03T11:22:18;5.40;;;1.88;;
30553;SDS011;17335;50.720;7.452;2022-09-03T11:24:50;4.28;;;2.03;;
30553;SDS011;17335;50.720;7.452;2022-09-03T11:32:48;3.40;;;2.03;;
30553;SDS011;17335;50.720;7.452;2022-09-03T11:35:25;2.88;;;1.75;;
30553;SDS011;17335;50.720;7.452;2022-09-03T11:40:52;4.00;;;2.15;;
30553;SDS011;17335;50.720;7.452;2022-09-03T11:43:27;2.90;;;1.90;;
30553;SDS011;17335;50.720;7.452;2022-09-03T11:46:03;3.13;;;1.67;;
30553;SDS011;17335;50.720;7.452;2022-09-03T11:48:41;4.22;;;2.00;;
30553;SDS011;17335;50.720;7.452;2022-09-03T11:54:41;2.70;;;1.80;;
30553;SDS011;17335;50.720;7.452;2022-09-03T11:56:48;3.58;;;2.20;;
30553;SDS011;17335;50.720;7.452;2022-09-03T11:59:17;3.15;;;1.80;;
30553;SDS011;17335;50.720;7.452;2022-09-03T12:02:11;3.15;;;1.98;;
30553;SDS011;17335;50.720;7.452;2022-09-03T12:18:53;4.95;;;1.98;;
30553;SDS011;17335;50.720;7.452;2022-09-03T12:21:26;4.03;;;2.03;;
30553;SDS011;17335;50.720;7.452;2022-09-03T12:23:53;3.75;;;2.20;;
30553;SDS011;17335;50.720;7.452;2022-09-03T12:26:24;4.18;;;1.80;;
30553;SDS011;17335;50.720;7.452;2022-09-03T12:28:53;3.55;;;1.92;;
30553;SDS011;17335;50.720;7.452;2022-09-03T12:31:22;3.63;;;2.20;;
30553;SDS011;17335;50.720;7.452;2022-09-03T12:33:53;9.05;;;2.40;;
30553;SDS011;17335;50.720;7.452;2022-09-03T12:36:38;3.55;;;1.98;;
30553;SDS011;17335;50.720;7.452;2022-09-03T12:39:08;3.83;;;1.90;;
30553;SDS011;17335;50.720;7.452;2022-09-03T12:47:03;3.53;;;2.10;;
30553;SDS011;17335;50.720;7.452;2022-09-03T12:49:51;3.65;;;2.10;;
30553;SDS011;17335;50.720;7.452;2022-09-03T12:55:02;3.20;;;2.00;;
30553;SDS011;17335;50.720;7.452;2022-09-03T12:57:31;3.65;;;1.90;;
30553;SDS011;17335;50.720;7.452;2022-09-03T13:00:04;3.45;;;1.73;;
30553;SDS011;17335;50.720;7.452;2022-09-03T13:02:41;4.78;;;2.13;;
30553;SDS011;17335;50.720;7.452;2022-09-03T13:05:14;3.58;;;1.92;;
30553;SDS011;17335;50.720;7.452;2022-09-03T13:07:45;3.42;;;1.80;;
30553;SDS011;17335;50.720;7.452;2022-09-03T13:10:28;5.78;;;2.08;;
30553;SDS011;17335;50.720;7.452;2022-09-03T13:13:01;3.75;;;2.17;;
30553;SDS011;17335;50.720;7.452;2022-09-03T13:15:32;8.18;;;2.20;;
30553;SDS011;17335;50.720;7.452;2022-09-03T13:18:11;6.28;;;2.38;;
30553;SDS011;17335;50.720;7.452;2022-09-03T13:21:09;5.40;;;2.22;;
30553;SDS011;17335;50.720;7.452;2022-09-03T13:26:55;3.15;;;1.95;;
30553;SDS011;17335;50.720;7.452;2022-09-03T13:29:36;4.75;;;2.10;;
30553;SDS011;17335;50.720;7.452;2022-09-03T13:32:42;4.38;;;2.00;;
30553;SDS011;17335;50.720;7.452;2022-09-03T13:41:07;5.57;;;2.03;;
30553;SDS011;17335;50.720;7.452;2022-09-03T13:43:58;3.30;;;1.77;;
30553;SDS011;17335;50.720;7.452;2022-09-03T13:46:33;3.53;;;1.85;;
30553;SDS011;17335;50.720;7.452;2022-09-03T13:49:12;3.55;;;1.73;;
30553;SDS011;17335;50.720;7.452;2022-09-03T13:52:10;2.92;;;1.67;;
30553;SDS011;17335;50.720;7.452;2022-09-03T13:54:49;2.88;;;1.60;;
30553;SDS011;17335;50.720;7.452;2022-09-03T13:57:36;4.22;;;1.63;;
30553;SDS011;17335;50.720;7.452;2022-09-03T14:00:13;5.65;;;1.80;;
30553;SDS011;17335;50.720;7.452;2022-09-03T14:27:35;4.47;;;1.70;;
30553;SDS011;17335;50.720;7.452;2022-09-03T14:30:15;3.25;;;1.67;;
30553;SDS011;17335;50.720;7.452;2022-09-03T14:35:38;2.85;;;1.80;;
30553;SDS011;17335;50.720;7.452;2022-09-03T14:40:56;4.00;;;1.67;;
30553;SDS011;17335;50.720;7.452;2022-09-03T14:46:32;2.70;;;1.65;;
30553;SDS011;17335;50.720;7.452;2022-09-03T15:00:15;4.03;;;1.63;;
30553;SDS011;17335;50.720;7.452;2022-09-03T15:02:52;3.78;;;1.67;;
30553;SDS011;17335;50.720;7.452;2022-09-03T15:05:41;3.85;;;1.60;;
30553;SDS011;17335;50.720;7.452;2022-09-03T15:11:14;2.38;;;1.27;;
30553;SDS011;17335;50.720;7.452;2022-09-03T15:13:46;2.58;;;1.60;;
30553;SDS011;17335;50.720;7.452;2022-09-03T15:29:48;2.35;;;1.42;;
30553;SDS011;17335;50.720;7.452;2022-09-03T15:35:31;2.58;;;1.70;;
30553;SDS011;17335;50.720;7.452;2022-09-03T15:41:19;2.65;;;1.55;;
30553;SDS011;17335;50.720;7.452;2022-09-03T15:43:57;7.50;;;1.63;;
30553;SDS011;17335;50.720;7.452;2022-09-03T15:48:59;4.20;;;1.33;;
30553;SDS011;17335;50.720;7.452;2022-09-03T15:51:34;2.50;;;1.40;;
30553;SDS011;17335;50.720;7.452;2022-09-03T15:57:08;2.78;;;1.73;;
30553;SDS011;17335;50.720;7.452;2022-09-03T16:04:55;4.35;;;1.90;;
30553;SDS011;17335;50.720;7.452;2022-09-03T16:08:27;2.55;;;1.50;;
30553;SDS011;17335;50.720;7.452;2022-09-03T16:13:51;0.82;;;0.68;;
30553;SDS011;17335;50.720;7.452;2022-09-03T16:16:25;1.67;;;0.93;;
30553;SDS011;17335;50.720;7.452;2022-09-03T16:27:33;0.68;;;0.47;;
30553;SDS011;17335;50.720;7.452;2022-09-03T16:30:09;1.83;;;0.60;;
30553;SDS011;17335;50.720;7.452;2022-09-03T16:35:14;0.98;;;0.63;;
30553;SDS011;17335;50.720;7.452;2022-09-03T16:49:15;1.52;;;0.90;;
30553;SDS011;17335;50.720;7.452;2022-09-03T16:55:26;1.92;;;1.10;;
30553;SDS011;17335;50.720;7.452;2022-09-03T17:00:46;7.15;;;1.30;;
30553;SDS011;17335;50.720;7.452;2022-09-03T17:11:46;3.70;;;1.95;;
30553;SDS011;17335;50.720;7.452;2022-09-03T17:14:26;4.53;;;1.75;;
30553;SDS011;17335;50.720;7.452;2022-09-03T17:22:32;3.22;;;1.58;;
30553;SDS011;17335;50.720;7.452;2022-09-03T17:25:07;2.88;;;1.50;;
30553;SDS011;17335;50.720;7.452;2022-09-03T17:39:00;2.13;;;1.30;;
30553;SDS011;17335;50.720;7.452;2022-09-03T17:41:54;3.65;;;1.67;;
30553;SDS011;17335;50.720;7.452;2022-09-03T17:50:19;3.22;;;1.42;;
30553;SDS011;17335;50.720;7.452;2022-09-03T17:52:54;1.67;;;1.15;;
30553;SDS011;17335;50.720;7.452;2022-09-03T18:01:02;1.85;;;0.98;;
30553;SDS011;17335;50.720;7.452;2022-09-03T18:03:38;2.55;;;0.90;;
30553;SDS011;17335;50.720;7.452;2022-09-03T18:06:34;2.20;;;1.13;;
30553;SDS011;17335;50.720;7.452;2022-09-03T18:11:49;4.05;;;1.55;;
30553;SDS011;17335;50.720;7.452;2022-09-03T18:17:30;3.67;;;1.40;;
30553;SDS011;17335;50.720;7.452;2022-09-03T18:20:06;2.58;;;1.60;;
30553;SDS011;17335;50.720;7.452;2022-09-03T18:22:59;4.43;;;2.17;;
30553;SDS011;17335;50.720;7.452;2022-09-03T18:25:56;5.15;;;2.30;;
30553;SDS011;17335;50.720;7.452;2022-09-03T18:31:37;3.60;;;2.13;;
30553;SDS011;17335;50.720;7.452;2022-09-03T18:34:27;3.85;;;2.38;;
30553;SDS011;17335;50.720;7.452;2022-09-03T18:37:20;3.42;;;2.17;;
30553;SDS011;17335;50.720;7.452;2022-09-03T18:40:07;4.43;;;2.08;;
30553;SDS011;17335;50.720;7.452;2022-09-03T18:49:08;4.60;;;2.35;;
30553;SDS011;17335;50.720;7.452;2022-09-03T18:57:53;5.88;;;3.08;;
30553;SDS011;17335;50.720;7.452;2022-09-03T19:00:40;3.83;;;2.58;;
30553;SDS011;17335;50.720;7.452;2022-09-03T19:03:44;4.10;;;2.90;;
30553;SDS011;17335;50.720;7.452;2022-09-03T19:06:43;3.65;;;2.45;;
30553;SDS011;17335;50.720;7.452;2022-09-03T19:15:26;4.53;;;2.63;;
30553;SDS011;17335;50.720;7.452;2022-09-03T19:18:18;6.90;;;2.92;;
30553;SDS011;17335;50.720;7.452;2022-09-03T19:21:19;5.32;;;2.92;;
30553;SDS011;17335;50.720;7.452;2022-09-03T19:24:12;5.30;;;3.00;;
30553;SDS011;17335;50.720;7.452;2022-09-03T19:30:13;4.40;;;2.80;;
30553;SDS011;17335;50.720;7.452;2022-09-03T19:33:12;5.32;;;2.80;;
30553;SDS011;17335;50.720;7.452;2022-09-03T19:42:12;4.78;;;2.58;;
30553;SDS011;17335;50.720;7.452;2022-09-03T19:45:28;4.43;;;2.58;;
30553;SDS011;17335;50.720;7.452;2022-09-03T19:51:26;3.13;;;2.10;;
30553;SDS011;17335;50.720;7.452;2022-09-03T19:54:22;5.15;;;2.83;;
30553;SDS011;17335;50.720;7.452;2022-09-03T19:57:11;5.88;;;2.83;;
30553;SDS011;17335;50.720;7.452;2022-09-03T19:59:59;8.15;;;3.05;;
30553;SDS011;17335;50.720;7.452;2022-09-03T20:02:58;4.05;;;2.50;;
30553;SDS011;17335;50.720;7.452;2022-09-03T20:05:45;5.95;;;3.08;;
30553;SDS011;17335;50.720;7.452;2022-09-03T20:08:36;4.97;;;2.85;;
30553;SDS011;17335;50.720;7.452;2022-09-03T20:11:22;4.30;;;2.90;;
30553;SDS011;17335;50.720;7.452;2022-09-03T20:13:52;4.78;;;3.17;;
30553;SDS011;17335;50.720;7.452;2022-09-03T20:30:43;5.65;;;3.17;;
30553;SDS011;17335;50.720;7.452;2022-09-03T20:33:14;5.55;;;3.15;;
30553;SDS011;17335;50.720;7.452;2022-09-03T20:38:31;4.80;;;3.20;;
30553;SDS011;17335;50.720;7.452;2022-09-03T20:52:47;5.10;;;3.45;;
30553;SDS011;17335;50.720;7.452;2022-09-03T20:55:10;5.15;;;3.30;;
30553;SDS011;17335;50.720;7.452;2022-09-03T21:00:18;4.75;;;3.13;;
30553;SDS011;17335;50.720;7.452;2022-09-03T21:02:50;7.75;;;3.38;;
30553;SDS011;17335;50.720;7.452;2022-09-03T21:13:51;4.43;;;3.28;;
30553;SDS011;17335;50.720;7.452;2022-09-03T21:17:13;5.53;;;3.28;;
30553;SDS011;17335;50.720;7.452;2022-09-03T21:25:23;6.63;;;4.00;;
30553;SDS011;17335;50.720;7.452;2022-09-03T21:27:58;6.40;;;3.60;;
30553;SDS011;17335;50.720;7.452;2022-09-03T21:30:28;6.22;;;3.88;;
30553;SDS011;17335;50.720;7.452;2022-09-03T21:33:16;7.75;;;4.20;;
30553;SDS011;17335;50.720;7.452;2022-09-03T21:36:02;7.20;;;3.55;;
30553;SDS011;17335;50.720;7.452;2022-09-03T21:38:52;5.43;;;3.28;;
30553;SDS011;17335;50.720;7.452;2022-09-03T21:41:38;6.30;;;3.20;;
30553;SDS011;17335;50.720;7.452;2022-09-03T21:44:16;4.95;;;3.22;;
30553;SDS011;17335;50.720;7.452;2022-09-03T21:46:55;5.20;;;3.13;;
30553;SDS011;17335;50.720;7.452;2022-09-03T21:49:29;6.53;;;3.30;;
30553;SDS011;17335;50.720;7.452;2022-09-03T21:52:05;7.20;;;3.83;;